createdAt,value
2022-09-12T00:02:02.556Z,8.52
2022-09-12T00:05:48.092Z,8.38
2022-09-12T00:09:29.975Z,8.55
2022-09-12T00:13:12.455Z,8.25
2022-09-12T00:16:58.767Z,8.65
2022-09-12T00:20:47.519Z,7.97
2022-09-12T00:24:29.330Z,8.57
2022-09-12T00:28:12.261Z,8.82
2022-09-12T00:31:54.142Z,8.93
2022-09-12T00:35:42.069Z,8.65
2022-09-12T00:39:23.890Z,8.20
2022-09-12T00:43:06.262Z,8.90
2022-09-12T00:47:14.767Z,9.65
2022-09-12T00:50:56.740Z,8.27
2022-09-12T00:54:50.003Z,7.63
2022-09-12T00:58:45.912Z,8.60
2022-09-12T01:02:28.614Z,8.55
2022-09-12T01:06:28.187Z,9.70
2022-09-12T01:10:11.407Z,8.60
2022-09-12T01:13:54.657Z,8.98
2022-09-12T01:17:55.123Z,8.88
2022-09-12T01:21:59.227Z,8.43
2022-09-12T01:26:01.279Z,8.45
2022-09-12T01:30:01.772Z,8.82
2022-09-12T01:34:11.779Z,9.00
2022-09-12T01:38:29.659Z,9.40
2022-09-12T01:42:27.760Z,8.70
2022-09-12T01:46:29.650Z,8.10
2022-09-12T01:50:35.792Z,9.20
2022-09-12T01:54:27.249Z,9.15
2022-09-12T01:58:14.945Z,9.35
2022-09-12T02:02:03.378Z,9.05
2022-09-12T02:06:01.347Z,9.55
2022-09-12T02:09:46.476Z,9.60
2022-09-12T02:13:31.390Z,10.10
2022-09-12T02:17:23.338Z,9.10
2022-09-12T02:21:06.582Z,8.63
2022-09-12T02:24:54.226Z,9.13
2022-09-12T02:28:41.482Z,9.00
2022-09-12T02:32:46.689Z,9.48
2022-09-12T02:36:31.781Z,8.43
2022-09-12T02:40:14.531Z,10.60
2022-09-12T02:43:56.694Z,10.18
2022-09-12T02:47:50.731Z,9.50
2022-09-12T02:51:33.126Z,9.40
2022-09-12T02:55:15.920Z,10.38
2022-09-12T02:59:02.838Z,9.52
2022-09-12T03:02:58.511Z,10.30
2022-09-12T03:06:55.465Z,10.50
2022-09-12T03:11:16.560Z,10.35
2022-09-12T03:15:19.558Z,9.95
2022-09-12T03:19:32.079Z,10.02
2022-09-12T03:23:39.312Z,8.98
2022-09-12T03:27:37.140Z,10.25
2022-09-12T03:31:20.036Z,10.93
2022-09-12T03:35:02.011Z,10.50
2022-09-12T03:38:44.022Z,10.77
2022-09-12T03:42:25.840Z,9.85
2022-09-12T03:46:07.715Z,9.77
2022-09-12T03:49:49.508Z,8.60
2022-09-12T03:53:31.743Z,8.73
2022-09-12T03:57:13.821Z,9.75
2022-09-12T04:00:55.661Z,10.80
2022-09-12T04:04:37.484Z,10.05
2022-09-12T04:08:19.485Z,9.55
2022-09-12T04:12:01.433Z,8.60
2022-09-12T04:15:43.237Z,8.80
2022-09-12T04:19:26.262Z,8.35
2022-09-12T04:23:08.266Z,8.07
2022-09-12T04:26:50.363Z,7.93
2022-09-12T04:30:34.575Z,7.68
2022-09-12T04:34:16.549Z,7.93
2022-09-12T04:37:58.372Z,8.70
2022-09-12T04:41:41.979Z,8.13
2022-09-12T04:45:23.829Z,7.32
2022-09-12T04:49:06.707Z,8.25
2022-09-12T04:52:53.383Z,7.32
2022-09-12T04:56:39.626Z,7.18
2022-09-12T05:00:21.602Z,7.88
2022-09-12T05:04:04.250Z,7.38
2022-09-12T05:07:46.117Z,7.32
2022-09-12T05:11:53.107Z,7.45
2022-09-12T05:15:32.668Z,7.70
2022-09-12T05:19:14.577Z,7.40
2022-09-12T05:22:56.465Z,7.07
2022-09-12T05:26:38.660Z,7.05
2022-09-12T05:30:20.576Z,8.13
2022-09-12T05:34:07.070Z,7.97
2022-09-12T05:37:48.887Z,7.45
2022-09-12T05:41:33.571Z,8.55
2022-09-12T05:45:15.980Z,7.53
2022-09-12T05:49:02.638Z,8.35
2022-09-12T05:52:44.490Z,8.52
2022-09-12T05:56:28.464Z,9.25
2022-09-12T06:00:10.963Z,8.45
2022-09-12T06:03:55.220Z,9.38
2022-09-12T06:07:37.172Z,9.00
2022-09-12T06:11:21.616Z,8.35
2022-09-12T06:15:03.973Z,8.10
2022-09-12T06:18:50.799Z,7.95
2022-09-12T06:22:32.663Z,7.90
2022-09-12T06:26:16.709Z,8.95
2022-09-12T06:29:59.603Z,8.73
2022-09-12T06:33:45.442Z,8.50
2022-09-12T06:37:27.320Z,8.25
2022-09-12T06:41:12.400Z,8.43
2022-09-12T06:44:54.344Z,9.23
2022-09-12T06:48:41.562Z,8.27
2022-09-12T06:52:23.885Z,7.85
2022-09-12T06:56:09.752Z,8.10
2022-09-12T06:59:51.800Z,9.07
2022-09-12T07:03:35.060Z,7.70
2022-09-12T07:07:16.828Z,7.82
2022-09-12T07:11:01.297Z,9.23
2022-09-12T07:14:43.278Z,8.20
2022-09-12T07:18:25.221Z,8.35
2022-09-12T07:22:07.335Z,9.18
2022-09-12T07:26:00.045Z,9.63
2022-09-12T07:29:41.917Z,8.48
2022-09-12T07:33:27.288Z,8.95
2022-09-12T07:37:09.347Z,10.18
2022-09-12T07:40:51.152Z,9.38
2022-09-12T07:44:33.294Z,8.90
2022-09-12T07:48:15.103Z,9.25
2022-09-12T07:51:57.002Z,9.00
2022-09-12T07:55:38.903Z,8.63
2022-09-12T07:59:41.583Z,8.57
2022-09-12T08:03:23.425Z,8.32
2022-09-12T08:07:06.691Z,8.85
2022-09-12T08:10:48.607Z,10.20
2022-09-12T08:14:31.678Z,9.55
2022-09-12T08:18:13.930Z,7.97
2022-09-12T08:21:55.864Z,8.93
2022-09-12T08:25:38.129Z,8.30
2022-09-12T08:29:36.261Z,7.97
2022-09-12T08:33:22.199Z,7.75
2022-09-12T08:37:08.008Z,7.97
2022-09-12T08:41:25.233Z,8.55
2022-09-12T08:45:22.855Z,8.13
2022-09-12T08:49:17.724Z,7.18
2022-09-12T08:53:20.433Z,8.00
2022-09-12T08:57:09.164Z,8.70
2022-09-12T09:01:10.108Z,5.57
2022-09-12T09:05:06.355Z,6.82
2022-09-12T09:08:51.255Z,5.57
2022-09-12T09:12:49.700Z,6.10
2022-09-12T09:16:44.392Z,5.05
2022-09-12T09:20:37.283Z,5.13
2022-09-12T09:24:26.740Z,3.85
2022-09-12T09:28:19.558Z,3.67
2022-09-12T09:32:13.471Z,3.03
2022-09-12T09:36:29.460Z,3.13
2022-09-12T09:40:35.624Z,3.55
2022-09-12T09:44:22.563Z,3.83
2022-09-12T09:48:20.939Z,2.67
2022-09-12T09:52:06.724Z,2.83
2022-09-12T09:55:51.440Z,1.45
2022-09-12T09:59:34.741Z,1.33
2022-09-12T10:03:50.822Z,1.58
2022-09-12T10:07:33.458Z,1.40
2022-09-12T10:11:48.878Z,1.90
2022-09-12T10:19:42.451Z,1.58
2022-09-12T10:23:42.510Z,1.17
2022-09-12T10:27:34.186Z,1.20
2022-09-12T10:31:29.208Z,1.17
2022-09-12T10:35:55.261Z,1.52
2022-09-12T10:43:38.556Z,1.20
2022-09-12T10:47:24.879Z,1.30
2022-09-12T10:51:25.765Z,1.27
2022-09-12T10:55:15.924Z,1.15
2022-09-12T10:59:06.623Z,1.13
2022-09-12T11:02:57.733Z,0.93
2022-09-12T11:06:58.948Z,0.98
2022-09-12T11:10:46.813Z,1.17
2022-09-12T11:14:36.980Z,1.27
2022-09-12T11:19:14.536Z,1.20
2022-09-12T11:23:28.057Z,1.10
2022-09-12T11:27:40.848Z,1.02
2022-09-12T11:31:39.057Z,1.30
2022-09-12T11:35:32.209Z,1.40
2022-09-12T11:39:17.176Z,1.35
2022-09-12T11:43:07.226Z,1.83
2022-09-12T11:46:52.137Z,1.10
2022-09-12T11:50:34.328Z,0.80
2022-09-12T11:54:38.384Z,4.47
2022-09-12T11:58:29.603Z,1.40
2022-09-12T12:02:17.530Z,1.08
2022-09-12T12:06:06.014Z,1.15
2022-09-12T12:09:52.299Z,1.30
2022-09-12T12:13:53.038Z,1.50
2022-09-12T12:17:37.584Z,2.10
2022-09-12T12:21:33.107Z,1.10
2022-09-12T12:25:19.537Z,2.17
2022-09-12T12:29:03.739Z,1.08
2022-09-12T12:32:45.603Z,1.20
2022-09-12T12:36:39.357Z,1.30
2022-09-12T12:40:25.498Z,1.65
2022-09-12T12:44:59.653Z,1.65
2022-09-12T12:49:30.568Z,1.35
2022-09-12T12:53:28.317Z,1.17
2022-09-12T12:57:13.210Z,1.50
2022-09-12T13:01:10.281Z,1.27
2022-09-12T13:04:54.197Z,1.45
2022-09-12T13:08:41.214Z,1.95
2022-09-12T13:12:30.659Z,1.48
2022-09-12T13:16:30.551Z,1.48
2022-09-12T13:20:30.533Z,1.00
2022-09-12T13:24:17.511Z,1.30
2022-09-12T13:28:11.574Z,1.20
2022-09-12T13:32:00.088Z,1.15
2022-09-12T13:36:19.070Z,1.25
2022-09-12T13:40:34.126Z,1.20
2022-09-12T13:44:19.696Z,1.30
2022-09-12T13:48:03.338Z,1.17
2022-09-12T13:51:45.275Z,1.33
2022-09-12T13:55:33.339Z,1.50
2022-09-12T13:59:16.307Z,1.10
2022-09-12T14:03:18.391Z,0.98
2022-09-12T14:07:03.536Z,1.08
2022-09-12T14:10:50.215Z,1.30
2022-09-12T14:14:36.087Z,1.20
2022-09-12T14:18:37.334Z,1.33
2022-09-12T14:22:19.651Z,1.00
2022-09-12T14:26:05.429Z,1.65
2022-09-12T14:29:52.413Z,1.17
2022-09-12T14:33:48.086Z,1.05
2022-09-12T14:37:30.004Z,1.10
2022-09-12T14:41:21.615Z,1.30
2022-09-12T14:45:14.004Z,1.48
2022-09-12T14:49:01.194Z,1.17
2022-09-12T14:52:43.999Z,1.38
2022-09-12T14:56:44.682Z,1.17
2022-09-12T15:00:26.744Z,1.73
2022-09-12T15:04:08.615Z,1.60
2022-09-12T15:07:59.788Z,1.65
2022-09-12T15:11:41.826Z,1.25
2022-09-12T15:15:23.595Z,1.20
2022-09-12T15:19:05.374Z,1.20
2022-09-12T15:22:47.260Z,1.27
2022-09-12T15:26:30.705Z,1.02
2022-09-12T15:30:16.370Z,2.60
2022-09-12T15:34:00.138Z,1.80
2022-09-12T15:37:42.066Z,1.33
2022-09-12T15:41:29.903Z,1.40
2022-09-12T15:45:26.056Z,1.50
2022-09-12T15:49:07.916Z,1.88
2022-09-12T15:52:51.442Z,1.27
2022-09-12T15:56:33.387Z,1.38
2022-09-12T16:00:17.794Z,1.08
2022-09-12T16:04:02.039Z,1.90
2022-09-12T16:07:45.282Z,1.23
2022-09-12T16:11:29.068Z,1.70
2022-09-12T16:15:13.988Z,1.90
2022-09-12T16:18:58.530Z,1.20
2022-09-12T16:22:40.462Z,1.45
2022-09-12T16:26:22.224Z,1.60
2022-09-12T16:30:06.646Z,1.20
2022-09-12T16:33:51.560Z,1.48
2022-09-12T16:37:34.688Z,1.20
2022-09-12T16:41:18.643Z,1.55
2022-09-12T16:45:00.524Z,1.27
2022-09-12T16:48:49.572Z,2.47
2022-09-12T16:52:36.694Z,1.77
2022-09-12T16:56:18.930Z,1.55
2022-09-12T17:00:00.882Z,1.92
2022-09-12T17:03:43.336Z,1.85
2022-09-12T17:07:25.300Z,1.50
2022-09-12T17:11:13.050Z,1.63
2022-09-12T17:14:54.813Z,1.63
2022-09-12T17:18:37.046Z,1.88
2022-09-12T17:22:19.692Z,1.30
2022-09-12T17:26:03.852Z,1.05
2022-09-12T17:29:47.010Z,1.60
2022-09-12T17:33:29.293Z,1.45
2022-09-12T17:37:11.467Z,1.10
2022-09-12T17:40:59.905Z,1.40
2022-09-12T17:44:42.670Z,1.35
2022-09-12T17:48:24.810Z,1.90
2022-09-12T17:52:06.701Z,2.33
2022-09-12T17:55:51.520Z,1.70
2022-09-12T17:59:36.620Z,1.02
2022-09-12T18:03:27.039Z,1.13
2022-09-12T18:07:09.273Z,1.48
2022-09-12T18:10:53.565Z,1.08
2022-09-12T18:14:35.480Z,1.42
2022-09-12T18:18:17.864Z,1.23
2022-09-12T18:21:59.963Z,1.30
2022-09-12T18:25:42.016Z,1.08
2022-09-12T18:29:30.487Z,2.25
2022-09-12T18:33:13.435Z,1.10
2022-09-12T18:36:55.345Z,1.50
2022-09-12T18:40:37.387Z,1.40
2022-09-12T18:44:19.291Z,1.67
2022-09-12T18:48:06.273Z,1.42
2022-09-12T18:51:48.210Z,2.08
2022-09-12T18:55:32.080Z,1.88
2022-09-12T18:59:15.048Z,1.85
2022-09-12T19:02:56.998Z,2.15
2022-09-12T19:06:41.788Z,2.88
2022-09-12T19:10:23.753Z,3.40
2022-09-12T19:14:06.192Z,4.30
2022-09-12T19:17:48.104Z,2.60
2022-09-12T19:21:31.314Z,2.65
2022-09-12T19:25:13.423Z,2.03
2022-09-12T19:28:56.156Z,2.60
2022-09-12T19:32:38.020Z,2.35
2022-09-12T19:40:23.882Z,1.67
2022-09-12T19:44:05.941Z,2.10
2022-09-12T19:47:47.998Z,3.25
2022-09-12T19:51:29.816Z,1.65
2022-09-12T19:55:11.848Z,2.63
2022-09-12T19:58:56.615Z,1.88
2022-09-12T20:02:38.713Z,1.80
2022-09-12T20:06:20.916Z,2.78
2022-09-12T20:10:02.823Z,1.88
2022-09-12T20:13:45.650Z,3.25
2022-09-12T20:17:27.718Z,2.08
2022-09-12T20:21:14.154Z,1.92
2022-09-12T20:24:56.167Z,2.50
2022-09-12T20:28:39.288Z,2.72
2022-09-12T20:32:21.366Z,3.08
2022-09-12T20:36:15.619Z,2.60
2022-09-12T20:39:57.548Z,2.30
2022-09-12T20:43:40.117Z,2.33
2022-09-12T20:47:25.297Z,1.98
2022-09-12T20:51:07.578Z,2.05
2022-09-12T20:54:49.437Z,2.05
2022-09-12T20:58:31.487Z,2.45
2022-09-12T21:02:15.331Z,2.63
2022-09-12T21:05:57.392Z,2.22
2022-09-12T21:09:39.795Z,2.35
2022-09-12T21:13:21.589Z,2.03
2022-09-12T21:17:05.344Z,2.50
2022-09-12T21:20:53.016Z,2.08
2022-09-12T21:24:34.967Z,2.20
2022-09-12T21:28:17.875Z,2.15
2022-09-12T21:31:59.796Z,2.30
2022-09-12T21:35:41.732Z,2.03
2022-09-12T21:39:23.726Z,2.50
2022-09-12T21:43:09.197Z,2.17
2022-09-12T21:46:53.889Z,2.13
2022-09-12T21:50:35.748Z,2.20
2022-09-12T21:54:19.009Z,2.22
2022-09-12T21:58:00.911Z,1.92
2022-09-12T22:01:45.866Z,2.20
2022-09-12T22:05:32.605Z,1.92
2022-09-12T22:09:17.028Z,2.10
2022-09-12T22:12:58.942Z,2.17
2022-09-12T22:16:41.027Z,1.92
2022-09-12T22:20:23.051Z,2.00
2022-09-12T22:24:23.440Z,2.20
2022-09-12T22:28:05.484Z,2.63
2022-09-12T22:31:47.946Z,1.85
2022-09-12T22:35:29.932Z,2.00
2022-09-12T22:39:12.813Z,1.88
2022-09-12T22:42:55.044Z,2.17
2022-09-12T22:46:38.019Z,1.90
2022-09-12T22:50:20.025Z,1.90
2022-09-12T22:54:02.744Z,2.38
2022-09-12T22:57:44.829Z,2.17
2022-09-12T23:01:27.311Z,2.65
2022-09-12T23:05:09.415Z,2.53
2022-09-12T23:08:51.310Z,2.70
2022-09-12T23:12:33.311Z,2.03
2022-09-12T23:16:24.434Z,2.20
2022-09-12T23:20:06.888Z,2.60
2022-09-12T23:23:49.446Z,2.25
2022-09-12T23:27:31.315Z,2.97
2022-09-12T23:31:13.179Z,2.80
2022-09-12T23:34:54.984Z,2.17
2022-09-12T23:38:37.007Z,2.65
2022-09-12T23:42:19.021Z,3.17
2022-09-12T23:46:01.847Z,3.00
2022-09-12T23:49:45.615Z,3.00
2022-09-12T23:53:27.687Z,2.55
2022-09-12T23:57:09.540Z,3.10
